Time;durP1;ratioP1;P1;durP2;ratioP2;P2;SDS_P1;SDS_P2;PMS_P1;PMS_P2;Temp;Humidity;BMP_temperature;BMP_pressure;BME280_temperature;BME280_humidity;BME280_pressure;Samples;Min_cycle;Max_cycle;Signal;HPM_P1;HPM_P2
2022/03/11 11:12:51;;;;;;;15.57;10.82;;;9.60;58.30;;;;;;5590281;23;20173;-56
2022/03/11 11:15:17;;;;;;;18.95;9.98;;;9.50;58.50;;;;;;4911973;29;20048;-56
2022/03/11 11:17:49;;;;;;;16.73;10.13;;;9.70;58.70;;;;;;4902921;29;20135;-54
2022/03/11 11:20:46;;;;;;;13.70;9.50;;;9.90;58.20;;;;;;4897247;29;20066;-51
2022/03/11 11:23:13;;;;;;;12.43;9.15;;;9.80;58.20;;;;;;4897152;29;20092;-48
2022/03/11 11:25:41;;;;;;;15.07;9.50;;;9.70;58.00;;;;;;4898128;29;20025;-50
2022/03/11 11:28:14;;;;;;;20.77;9.77;;;9.70;58.10;;;;;;4898372;29;20020;-52
2022/03/11 11:30:40;;;;;;;20.20;9.55;;;9.50;58.40;;;;;;4897130;29;20044;-52
2022/03/11 11:33:06;;;;;;;13.55;9.13;;;9.40;58.90;;;;;;4896130;29;20457;-49
2022/03/11 11:35:39;;;;;;;13.73;10.63;;;9.40;59.00;;;;;;4894125;29;20037;-54
2022/03/11 11:38:07;;;;;;;14.60;9.25;;;9.40;60.10;;;;;;4893045;29;20052;-51
2022/03/11 11:40:38;;;;;;;15.13;9.93;;;9.50;59.40;;;;;;4896404;29;20076;-49
2022/03/11 11:43:13;;;;;;;15.60;9.45;;;9.60;58.60;;;;;;4896519;29;20404;-47
2022/03/11 11:45:43;;;;;;;16.10;9.80;;;9.70;58.90;;;;;;4897036;29;20444;-48
2022/03/11 11:48:33;;;;;;;13.48;9.75;;;10.00;58.70;;;;;;4896816;29;20029;-50
2022/03/11 11:51:10;;;;;;;12.63;9.32;;;10.00;58.30;;;;;;4896618;29;20033;-46
2022/03/11 11:53:43;;;;;;;14.43;9.82;;;9.90;58.40;;;;;;4896547;29;20059;-50
2022/03/11 11:56:27;;;;;;;16.73;9.63;;;9.90;59.00;;;;;;4896743;29;20497;-49
2022/03/11 11:58:56;;;;;;;17.80;9.93;;;9.90;58.50;;;;;;4896242;29;20484;-49
2022/03/11 12:01:44;;;;;;;16.55;10.23;;;9.80;58.80;;;;;;4895030;29;20125;-48
2022/03/11 12:04:35;;;;;;;15.52;9.38;;;9.70;58.80;;;;;;4896641;29;20028;-53
2022/03/11 12:07:16;;;;;;;15.15;9.50;;;9.70;59.50;;;;;;4896413;29;20563;-48
2022/03/11 12:09:42;;;;;;;13.00;9.85;;;9.80;58.90;;;;;;4896518;29;20056;-48
2022/03/11 12:12:08;;;;;;;14.55;9.35;;;9.80;59.00;;;;;;4895704;29;20028;-47
2022/03/11 12:14:54;;;;;;;15.45;9.13;;;9.90;58.60;;;;;;4896343;29;20377;-47
2022/03/11 12:17:58;;;;;;;14.15;10.05;;;10.00;59.30;;;;;;4896526;29;20173;-46
2022/03/11 12:20:38;;;;;;;17.92;10.20;;;10.10;58.50;;;;;;4894000;29;20040;-47
2022/03/11 12:23:16;;;;;;;14.18;10.48;;;10.10;58.70;;;;;;4899011;29;20555;-50
2022/03/11 12:25:56;;;;;;;13.35;8.50;;;10.10;58.40;;;;;;4900072;29;20031;-45
2022/03/11 12:28:25;;;;;;;14.35;9.02;;;10.20;58.50;;;;;;4900099;29;20031;-49
2022/03/11 12:30:50;;;;;;;14.05;10.07;;;10.20;58.40;;;;;;4899817;29;20103;-48
2022/03/11 12:33:21;;;;;;;13.98;9.38;;;10.30;58.50;;;;;;4898503;29;20029;-48
2022/03/11 12:35:50;;;;;;;16.25;9.60;;;10.30;59.00;;;;;;4898726;29;20076;-50
2022/03/11 12:38:24;;;;;;;22.52;9.75;;;10.40;58.60;;;;;;4900054;29;20047;-49
2022/03/11 12:40:51;;;;;;;16.40;10.48;;;10.40;58.30;;;;;;4899792;29;20484;-51
2022/03/11 12:43:18;;;;;;;13.40;9.73;;;10.50;58.40;;;;;;4899569;29;20088;-50
2022/03/11 12:45:47;;;;;;;14.88;9.73;;;10.50;58.70;;;;;;4899861;29;20116;-49
2022/03/11 12:48:18;;;;;;;18.73;9.82;;;10.60;58.70;;;;;;4898377;29;20036;-48
2022/03/11 12:50:46;;;;;;;13.27;9.77;;;10.60;58.60;;;;;;4899526;29;20033;-48
2022/03/11 12:53:13;;;;;;;19.27;10.60;;;10.60;58.60;;;;;;4899583;29;20107;-50
2022/03/11 12:55:41;;;;;;;15.13;10.13;;;10.60;58.80;;;;;;4897819;29;20025;-55
2022/03/11 12:58:14;;;;;;;13.10;9.50;;;10.70;58.70;;;;;;4896507;29;20036;-48
2022/03/11 13:00:41;;;;;;;18.38;11.52;;;10.70;58.50;;;;;;4898652;29;20620;-49
2022/03/11 13:03:09;;;;;;;15.05;9.82;;;10.80;58.90;;;;;;4899216;29;20028;-48
2022/03/11 13:05:36;;;;;;;19.40;10.18;;;11.10;58.00;;;;;;4899669;29;20028;-49
2022/03/11 13:08:05;;;;;;;16.48;9.25;;;11.00;58.20;;;;;;4898779;29;20025;-51
2022/03/11 13:10:31;;;;;;;11.77;8.77;;;10.90;58.70;;;;;;4898302;29;20487;-53
2022/03/11 13:12:58;;;;;;;12.48;8.98;;;10.90;58.90;;;;;;4897841;29;20069;-49
2022/03/11 13:15:27;;;;;;;13.57;9.35;;;11.00;58.80;;;;;;4899368;29;20033;-49
2022/03/11 13:17:58;;;;;;;12.07;9.13;;;11.10;58.90;;;;;;4897789;29;20068;-52
2022/03/11 13:20:47;;;;;;;18.58;9.38;;;11.10;58.50;;;;;;4899230;29;20104;-51
2022/03/11 13:23:16;;;;;;;22.75;9.93;;;11.20;58.40;;;;;;4898639;29;20021;-47
2022/03/11 13:25:49;;;;;;;16.33;11.63;;;11.20;58.30;;;;;;4899281;29;20515;-49
2022/03/11 13:28:26;;;;;;;13.88;9.75;;;11.20;58.80;;;;;;4898825;29;20025;-49
2022/03/11 13:30:54;;;;;;;14.70;10.25;;;11.20;58.40;;;;;;4898675;29;20406;-47
2022/03/11 13:33:21;;;;;;;12.65;9.68;;;11.20;58.10;;;;;;4897766;29;20433;-47
2022/03/11 13:36:02;;;;;;;13.48;9.65;;;11.30;58.30;;;;;;4899330;29;20072;-47
2022/03/11 13:38:35;;;;;;;17.45;9.05;;;11.30;57.80;;;;;;4898887;29;20080;-49
2022/03/11 13:41:00;;;;;;;14.55;9.90;;;11.40;58.00;;;;;;4898779;29;20071;-49
2022/03/11 13:43:26;;;;;;;16.38;9.55;;;11.50;58.20;;;;;;4898356;29;20508;-50
2022/03/11 13:45:55;;;;;;;16.67;9.68;;;11.60;57.70;;;;;;4898847;29;20033;-51
2022/03/11 13:48:36;;;;;;;16.70;9.90;;;11.60;57.80;;;;;;4898775;29;20112;-49
2022/03/11 13:51:08;;;;;;;11.20;9.63;;;11.70;58.00;;;;;;4898829;29;20036;-48
2022/03/11 13:53:36;;;;;;;20.25;9.60;;;11.70;57.50;;;;;;4898415;29;20500;-47
2022/03/11 13:56:15;;;;;;;14.52;8.80;;;11.70;57.70;;;;;;4898484;29;20556;-52
2022/03/11 13:58:40;;;;;;;14.23;9.35;;;11.80;57.50;;;;;;4898564;29;20048;-47
2022/03/11 14:01:08;;;;;;;13.25;8.48;;;11.80;57.20;;;;;;4898480;29;20445;-54
2022/03/11 14:03:42;;;;;;;14.85;9.25;;;11.90;57.20;;;;;;4898369;29;20469;-52
2022/03/11 14:06:08;;;;;;;17.90;9.25;;;11.90;56.80;;;;;;4898249;29;20032;-49
2022/03/11 14:08:34;;;;;;;18.40;9.52;;;12.00;56.70;;;;;;4898608;29;20032;-48
2022/03/11 14:11:04;;;;;;;15.57;9.02;;;12.00;56.80;;;;;;4898440;29;20076;-46
2022/03/11 14:13:35;;;;;;;14.88;10.55;;;12.00;56.80;;;;;;4898048;29;20032;-49
2022/03/11 14:16:09;;;;;;;13.45;10.27;;;12.10;56.70;;;;;;4898209;29;20069;-52
2022/03/11 14:18:35;;;;;;;14.88;9.00;;;12.10;56.80;;;;;;4898540;29;20025;-48
2022/03/11 14:21:01;;;;;;;12.63;9.75;;;12.10;56.40;;;;;;4897943;29;20553;-46
2022/03/11 14:23:27;;;;;;;17.95;10.25;;;12.10;56.60;;;;;;4898057;29;20025;-49
2022/03/11 14:25:53;;;;;;;12.25;8.75;;;12.10;56.80;;;;;;4898203;29;20508;-50
2022/03/11 14:28:18;;;;;;;13.82;9.15;;;12.10;56.70;;;;;;4897748;29;20281;-49
2022/03/11 14:30:44;;;;;;;17.42;9.48;;;12.20;56.10;;;;;;4896778;29;20044;-49
2022/03/11 14:33:10;;;;;;;13.73;9.75;;;12.20;56.40;;;;;;4896438;29;20032;-47
2022/03/11 14:35:37;;;;;;;15.18;9.18;;;12.20;56.40;;;;;;4898292;29;20400;-48
2022/03/11 14:38:04;;;;;;;16.90;9.45;;;12.20;56.00;;;;;;4898138;29;20448;-47
2022/03/11 14:40:34;;;;;;;14.35;9.70;;;12.30;56.30;;;;;;4897982;29;20342;-47
2022/03/11 14:43:00;;;;;;;14.98;9.57;;;12.30;56.50;;;;;;4897201;29;20028;-47
2022/03/11 14:45:26;;;;;;;16.35;9.73;;;12.40;56.00;;;;;;4897786;29;20129;-47
2022/03/11 14:47:52;;;;;;;17.60;9.85;;;12.40;56.50;;;;;;4898016;29;20129;-47
2022/03/11 14:50:18;;;;;;;12.93;9.43;;;12.50;56.80;;;;;;4897761;29;20044;-50
2022/03/11 14:52:46;;;;;;;24.42;9.43;;;12.50;56.30;;;;;;4897194;29;20496;-49
2022/03/11 14:55:15;;;;;;;28.13;17.25;;;12.60;56.30;;;;;;4897640;29;20111;-46
2022/03/11 14:57:44;;;;;;;12.80;9.38;;;12.70;56.00;;;;;;4897390;29;20112;-49
2022/03/11 15:00:12;;;;;;;16.73;9.55;;;12.60;55.80;;;;;;4897444;29;20021;-48
2022/03/11 15:02:37;;;;;;;15.07;9.48;;;12.70;56.10;;;;;;4897970;29;20048;-51
2022/03/11 15:05:04;;;;;;;13.38;9.00;;;12.70;55.60;;;;;;4897705;29;20554;-46
2022/03/11 15:07:30;;;;;;;13.52;10.35;;;12.70;55.20;;;;;;4897454;29;20440;-48
2022/03/11 15:09:56;;;;;;;16.63;9.88;;;12.80;55.60;;;;;;4897382;29;20021;-48
2022/03/11 15:12:22;;;;;;;16.30;9.98;;;12.80;55.00;;;;;;4897107;29;20054;-49
2022/03/11 15:14:48;;;;;;;11.90;8.32;;;12.80;55.20;;;;;;4897221;29;20033;-48
2022/03/11 15:17:14;;;;;;;14.48;9.35;;;12.80;55.30;;;;;;4897340;29;20024;-48
2022/03/11 15:19:40;;;;;;;15.13;9.40;;;12.90;54.90;;;;;;4897089;29;20032;-48
2022/03/11 15:22:05;;;;;;;13.63;9.20;;;12.90;54.80;;;;;;4896744;29;20024;-49
2022/03/11 15:24:31;;;;;;;11.40;9.13;;;12.90;55.80;;;;;;4895782;29;20468;-48
2022/03/11 15:27:00;;;;;;;15.50;8.95;;;12.90;54.90;;;;;;4897213;29;20039;-51
2022/03/11 15:29:25;;;;;;;18.77;9.55;;;12.90;54.90;;;;;;4897040;29;20033;-48
2022/03/11 15:31:51;;;;;;;13.60;9.35;;;12.90;54.90;;;;;;4896466;29;20024;-50
2022/03/11 15:34:17;;;;;;;16.35;9.02;;;12.90;54.60;;;;;;4897045;29;20053;-45
2022/03/11 15:36:42;;;;;;;13.68;9.30;;;12.90;54.70;;;;;;4896792;29;20029;-45
2022/03/11 15:39:08;;;;;;;14.85;8.75;;;12.90;54.50;;;;;;4896878;29;20031;-48
2022/03/11 15:41:33;;;;;;;17.60;9.35;;;13.00;54.50;;;;;;4896683;29;20063;-48
2022/03/11 15:44:00;;;;;;;17.48;9.63;;;13.00;54.10;;;;;;4896911;29;20048;-49
2022/03/11 15:46:28;;;;;;;16.60;10.88;;;13.10;54.50;;;;;;4896822;29;20108;-50
2022/03/11 15:48:55;;;;;;;16.73;9.27;;;13.00;54.20;;;;;;4896804;29;20040;-50
2022/03/11 15:51:21;;;;;;;17.98;10.23;;;13.00;54.00;;;;;;4896214;29;20087;-47
2022/03/11 15:53:46;;;;;;;15.55;9.70;;;13.00;54.30;;;;;;4896566;29;20032;-50
2022/03/11 15:56:12;;;;;;;13.60;8.80;;;13.00;54.90;;;;;;4895998;29;20021;-48
2022/03/11 15:58:37;;;;;;;13.57;9.27;;;13.00;53.90;;;;;;4896419;29;20112;-46
2022/03/11 16:01:04;;;;;;;15.52;9.77;;;13.00;54.10;;;;;;4896320;29;20100;-45
2022/03/11 16:03:30;;;;;;;15.75;9.80;;;13.00;54.20;;;;;;4896226;29;20032;-49
2022/03/11 16:05:55;;;;;;;12.13;9.07;;;13.20;54.00;;;;;;4896384;29;20036;-46
2022/03/11 16:08:21;;;;;;;16.80;9.82;;;13.30;53.70;;;;;;4896587;29;20489;-46
2022/03/11 16:10:47;;;;;;;15.93;9.48;;;13.30;53.70;;;;;;4895782;29;20084;-46
2022/03/11 16:13:14;;;;;;;18.13;9.18;;;13.20;53.50;;;;;;4896053;29;20107;-47
2022/03/11 16:15:41;;;;;;;13.82;9.73;;;13.10;53.70;;;;;;4896382;29;20034;-45
2022/03/11 16:18:07;;;;;;;11.65;9.60;;;13.00;53.60;;;;;;4896038;29;20031;-52
2022/03/11 16:20:33;;;;;;;15.35;9.80;;;13.00;53.50;;;;;;4896094;29;20099;-50
2022/03/11 16:22:59;;;;;;;13.07;8.85;;;12.90;53.40;;;;;;4895131;29;20029;-47
2022/03/11 16:25:26;;;;;;;14.23;9.45;;;12.80;53.70;;;;;;4896345;29;20028;-51
2022/03/11 16:27:51;;;;;;;11.50;8.52;;;12.80;54.10;;;;;;4895009;29;20036;-47
2022/03/11 16:30:17;;;;;;;16.30;9.25;;;12.80;53.80;;;;;;4896211;29;20388;-49
2022/03/11 16:32:42;;;;;;;17.30;9.32;;;12.70;53.90;;;;;;4895919;29;20036;-47
2022/03/11 16:35:09;;;;;;;15.30;9.48;;;12.60;54.20;;;;;;4896249;29;20497;-50
2022/03/11 16:37:35;;;;;;;16.67;9.85;;;12.50;54.00;;;;;;4896472;29;20025;-49
2022/03/11 16:40:02;;;;;;;11.25;8.63;;;12.50;54.00;;;;;;4896471;29;20033;-47
2022/03/11 16:42:28;;;;;;;12.55;8.90;;;12.40;54.10;;;;;;4895679;29;20028;-53
2022/03/11 16:44:54;;;;;;;14.15;8.98;;;12.40;54.00;;;;;;4896439;29;20519;-47
2022/03/11 16:47:19;;;;;;;15.63;8.38;;;12.40;54.30;;;;;;4896013;29;20040;-50
2022/03/11 16:49:45;;;;;;;21.25;8.93;;;12.30;54.30;;;;;;4896156;29;20044;-46
2022/03/11 16:52:13;;;;;;;16.83;8.90;;;12.20;54.10;;;;;;4896002;29;20024;-48
2022/03/11 16:54:39;;;;;;;13.32;8.85;;;12.20;54.40;;;;;;4896350;29;20395;-47
2022/03/11 16:57:06;;;;;;;28.75;9.32;;;12.20;54.50;;;;;;4895819;29;20033;-50
2022/03/11 16:59:32;;;;;;;13.05;9.50;;;12.10;54.50;;;;;;4895953;29;20514;-48
2022/03/11 17:01:58;;;;;;;14.73;9.48;;;12.10;54.70;;;;;;4895671;29;20107;-51
2022/03/11 17:04:23;;;;;;;16.08;9.10;;;12.00;55.00;;;;;;4895705;29;20033;-47
2022/03/11 17:06:49;;;;;;;13.38;8.48;;;12.00;54.90;;;;;;4894809;29;20428;-49
2022/03/11 17:09:14;;;;;;;15.48;9.00;;;11.90;55.00;;;;;;4897475;29;20024;-46
2022/03/11 17:11:41;;;;;;;18.50;9.48;;;11.80;55.00;;;;;;4899392;29;20067;-47
2022/03/11 17:14:10;;;;;;;13.30;9.07;;;11.80;55.20;;;;;;4898980;29;20075;-47
2022/03/11 17:16:36;;;;;;;99.70;55.03;;;11.70;55.40;;;;;;4899464;29;20060;-46
2022/03/11 17:19:02;;;;;;;26.70;14.35;;;11.60;55.50;;;;;;4899210;29;20029;-47
2022/03/11 17:21:28;;;;;;;17.90;8.10;;;11.60;55.40;;;;;;4899520;29;20048;-48
2022/03/11 17:23:54;;;;;;;17.40;9.32;;;11.60;55.30;;;;;;4899339;29;20067;-46
2022/03/11 17:26:19;;;;;;;21.52;9.52;;;11.50;55.30;;;;;;4899635;29;20385;-46
2022/03/11 17:28:45;;;;;;;18.38;9.23;;;11.50;55.50;;;;;;4899622;29;20091;-50
2022/03/11 17:31:11;;;;;;;12.88;9.25;;;11.50;55.40;;;;;;4898872;29;20060;-48
2022/03/11 17:33:36;;;;;;;16.27;9.55;;;11.40;55.30;;;;;;4898844;29;20025;-47
2022/03/11 17:36:02;;;;;;;21.13;10.32;;;11.40;55.30;;;;;;4899835;29;20510;-47
2022/03/11 17:38:28;;;;;;;20.20;9.73;;;11.30;55.50;;;;;;4899278;29;20575;-47
2022/03/11 17:40:54;;;;;;;17.25;9.63;;;11.30;55.50;;;;;;4899525;29;20028;-47
2022/03/11 17:43:20;;;;;;;17.42;9.13;;;11.20;55.70;;;;;;4898930;29;20033;-46
2022/03/11 17:45:46;;;;;;;18.67;9.00;;;11.10;55.60;;;;;;4898988;29;20076;-48
2022/03/11 17:48:12;;;;;;;17.90;8.73;;;11.00;55.60;;;;;;4898993;29;20036;-46
2022/03/11 17:50:38;;;;;;;18.40;10.07;;;11.00;55.70;;;;;;4898928;29;20111;-48
2022/03/11 17:53:04;;;;;;;14.10;8.63;;;11.00;55.90;;;;;;4898056;29;20088;-49
2022/03/11 17:55:30;;;;;;;21.30;8.85;;;10.90;55.90;;;;;;4898531;29;20112;-47
2022/03/11 17:57:56;;;;;;;13.45;9.20;;;10.80;56.10;;;;;;4898743;29;20108;-47
2022/03/11 18:00:22;;;;;;;17.60;8.63;;;10.80;56.30;;;;;;4898642;29;20037;-48
2022/03/11 18:02:48;;;;;;;14.88;8.57;;;10.80;56.50;;;;;;4898466;29;20357;-50
2022/03/11 18:05:16;;;;;;;20.17;9.05;;;10.80;56.40;;;;;;4898810;29;20056;-47
2022/03/11 18:07:42;;;;;;;15.55;8.52;;;10.80;55.60;;;;;;4897223;29;20036;-52
2022/03/11 18:10:10;;;;;;;14.98;8.68;;;10.80;55.20;;;;;;4897338;29;20492;-47
2022/03/11 18:12:36;;;;;;;15.75;8.88;;;10.70;54.90;;;;;;4897941;29;20024;-48
2022/03/11 18:15:02;;;;;;;14.52;8.52;;;10.70;54.70;;;;;;4899217;29;20088;-48
2022/03/11 18:17:28;;;;;;;20.80;8.68;;;10.70;54.60;;;;;;4898327;29;20043;-48
2022/03/11 18:19:54;;;;;;;13.80;8.43;;;10.60;54.20;;;;;;4897485;29;20033;-49
2022/03/11 18:22:21;;;;;;;17.45;8.15;;;10.60;54.00;;;;;;4898010;29;20033;-47
2022/03/11 18:24:50;;;;;;;10.38;7.82;;;10.60;53.80;;;;;;4898332;29;20024;-51
2022/03/11 18:27:16;;;;;;;10.23;6.95;;;10.60;53.30;;;;;;4898470;29;20028;-47
2022/03/11 18:29:41;;;;;;;10.50;6.85;;;10.60;52.70;;;;;;4898165;29;20070;-49
2022/03/11 18:32:08;;;;;;;11.18;7.05;;;10.60;52.60;;;;;;4897175;29;20440;-49
2022/03/11 18:34:34;;;;;;;7.78;6.30;;;10.60;52.50;;;;;;4898088;29;20028;-49
2022/03/11 18:37:00;;;;;;;12.02;6.38;;;10.60;52.30;;;;;;4898097;29;20024;-46
2022/03/11 18:39:27;;;;;;;14.50;6.90;;;10.60;52.10;;;;;;4897994;29;20321;-48
2022/03/11 18:41:53;;;;;;;9.07;6.05;;;10.60;51.80;;;;;;4897836;29;20037;-49
2022/03/11 18:44:20;;;;;;;11.85;6.25;;;10.60;51.40;;;;;;4897802;29;20120;-46
2022/03/11 18:46:45;;;;;;;9.43;7.00;;;10.70;51.40;;;;;;4897866;29;20097;-51
2022/03/11 18:49:11;;;;;;;8.50;6.30;;;10.60;51.10;;;;;;4897838;29;20112;-51
2022/03/11 18:51:37;;;;;;;14.43;6.93;;;10.70;50.90;;;;;;4897783;29;20602;-46
2022/03/11 18:54:04;;;;;;;12.23;6.88;;;10.60;51.10;;;;;;4898034;29;20020;-50
2022/03/11 18:56:31;;;;;;;18.33;7.80;;;10.60;51.30;;;;;;4897808;29;20513;-48
2022/03/11 18:59:00;;;;;;;9.63;6.80;;;10.60;51.40;;;;;;4897360;29;20025;-46
2022/03/11 19:01:26;;;;;;;11.40;7.13;;;10.50;52.10;;;;;;4897439;29;20111;-47
2022/03/11 19:03:52;;;;;;;12.07;6.68;;;10.50;51.40;;;;;;4897449;29;20039;-51
2022/03/11 19:06:18;;;;;;;13.43;7.28;;;10.40;51.50;;;;;;4897624;29;20028;-46
2022/03/11 19:08:47;;;;;;;29.85;15.25;;;10.40;51.60;;;;;;4897470;29;20445;-51
2022/03/11 19:11:14;;;;;;;12.25;6.45;;;10.30;51.60;;;;;;4896701;29;20064;-51
2022/03/11 19:13:40;;;;;;;12.32;6.75;;;10.20;51.50;;;;;;4896915;29;20125;-47
2022/03/11 19:16:05;;;;;;;10.20;6.95;;;10.20;51.50;;;;;;4896995;29;20520;-49
2022/03/11 19:18:32;;;;;;;12.60;6.60;;;10.10;51.30;;;;;;4897111;29;20032;-47
2022/03/11 19:20:58;;;;;;;11.00;6.18;;;10.10;51.20;;;;;;4897303;29;20112;-46
2022/03/11 19:23:23;;;;;;;9.98;5.75;;;10.10;51.00;;;;;;4896986;29;20104;-46
2022/03/11 19:25:49;;;;;;;10.48;5.97;;;10.10;51.00;;;;;;4897098;29;20079;-49
2022/03/11 19:28:14;;;;;;;8.15;6.30;;;10.20;50.90;;;;;;4897132;29;20032;-46
2022/03/11 19:30:42;;;;;;;11.50;6.57;;;10.10;50.70;;;;;;4896561;29;20112;-48
2022/03/11 19:33:07;;;;;;;10.38;6.20;;;10.10;50.90;;;;;;4896087;29;20032;-51
2022/03/11 19:35:33;;;;;;;11.45;6.68;;;10.00;50.90;;;;;;4896981;29;20484;-47
2022/03/11 19:38:00;;;;;;;20.20;6.85;;;10.10;50.90;;;;;;4897273;29;20029;-51
2022/03/11 19:40:29;;;;;;;9.82;6.53;;;10.00;51.00;;;;;;4897394;29;20028;-48
2022/03/11 19:42:58;;;;;;;9.73;6.55;;;10.00;51.10;;;;;;4895538;29;20064;-48
2022/03/11 19:45:23;;;;;;;13.43;6.15;;;9.90;51.00;;;;;;4896678;29;20036;-51
2022/03/11 19:47:49;;;;;;;9.68;6.28;;;9.90;51.00;;;;;;4896747;29;20103;-51
2022/03/11 19:50:16;;;;;;;13.35;6.72;;;9.90;51.10;;;;;;4896748;29;20404;-48
2022/03/11 19:52:42;;;;;;;11.10;6.53;;;9.90;51.10;;;;;;4896102;29;20036;-53
2022/03/11 19:55:09;;;;;;;9.85;5.90;;;9.80;51.20;;;;;;4896898;29;20511;-50
2022/03/11 19:57:34;;;;;;;8.32;5.85;;;9.80;51.30;;;;;;4896417;29;20506;-51
2022/03/11 20:00:00;;;;;;;12.48;5.82;;;9.70;51.30;;;;;;4896526;29;20107;-48
2022/03/11 20:02:27;;;;;;;13.40;6.95;;;9.70;51.30;;;;;;4896213;29;20408;-49
2022/03/11 20:04:52;;;;;;;10.32;6.18;;;9.60;51.50;;;;;;4896883;29;20040;-50
2022/03/11 20:07:21;;;;;;;11.80;6.13;;;9.60;51.40;;;;;;4896284;29;20519;-52
2022/03/11 20:09:46;;;;;;;10.35;6.40;;;9.60;51.40;;;;;;4897034;29;20029;-48
2022/03/11 20:12:13;;;;;;;14.52;6.15;;;9.60;51.40;;;;;;4894519;29;20035;-53
2022/03/11 20:14:42;;;;;;;12.65;6.40;;;9.60;51.40;;;;;;4896387;29;20094;-47
2022/03/11 20:17:09;;;;;;;11.10;5.85;;;9.50;51.50;;;;;;4896552;29;20201;-46
2022/03/11 20:19:35;;;;;;;9.70;6.00;;;9.50;51.40;;;;;;4896572;29;20505;-48
2022/03/11 20:22:00;;;;;;;11.10;8.18;;;9.40;51.60;;;;;;4898104;29;20069;-48
2022/03/11 20:24:26;;;;;;;7.63;5.93;;;9.40;51.30;;;;;;4898235;29;20113;-49
2022/03/11 20:26:52;;;;;;;8.85;6.15;;;9.40;51.40;;;;;;4901119;29;20035;-47
2022/03/11 20:29:18;;;;;;;7.15;5.55;;;9.40;51.50;;;;;;4895500;29;20033;-49
2022/03/11 20:31:43;;;;;;;13.05;6.45;;;9.40;51.50;;;;;;4895916;29;20039;-47
2022/03/11 20:34:11;;;;;;;10.88;6.63;;;9.20;51.70;;;;;;4896148;29;20021;-48
2022/03/11 20:36:36;;;;;;;7.95;5.90;;;9.30;51.80;;;;;;4896343;29;20032;-51
2022/03/11 20:39:04;;;;;;;8.52;5.40;;;9.20;51.80;;;;;;4896500;29;20127;-46
2022/03/11 20:41:29;;;;;;;12.00;7.03;;;9.10;51.90;;;;;;4896167;29;20345;-50
2022/03/11 20:43:56;;;;;;;10.20;5.88;;;9.00;52.00;;;;;;4898861;29;20079;-47
2022/03/11 20:46:23;;;;;;;10.07;5.45;;;9.00;51.80;;;;;;4899939;29;20039;-48
2022/03/11 20:48:49;;;;;;;12.50;6.63;;;9.10;51.70;;;;;;4899996;29;20135;-47
2022/03/11 20:51:16;;;;;;;9.48;7.13;;;9.10;51.70;;;;;;4899450;29;20112;-51
2022/03/11 20:53:41;;;;;;;10.98;6.75;;;9.00;51.70;;;;;;4899561;29;20021;-49
2022/03/11 20:56:07;;;;;;;10.98;7.35;;;9.00;51.70;;;;;;4899678;29;20029;-49
2022/03/11 20:58:32;;;;;;;9.13;6.40;;;9.00;51.60;;;;;;4898337;29;20024;-48
2022/03/11 21:00:58;;;;;;;8.68;6.65;;;9.10;51.80;;;;;;4899517;29;20044;-49
2022/03/11 21:03:25;;;;;;;15.80;7.38;;;9.10;51.70;;;;;;4899202;29;20031;-50
2022/03/11 21:05:51;;;;;;;12.95;6.22;;;9.00;51.90;;;;;;4899624;29;20025;-46
2022/03/11 21:08:17;;;;;;;8.93;6.03;;;9.00;51.90;;;;;;4899400;29;20035;-48
2022/03/11 21:10:45;;;;;;;14.07;6.80;;;8.90;52.30;;;;;;4899459;29;20017;-47
2022/03/11 21:13:13;;;;;;;10.40;6.03;;;8.90;52.40;;;;;;4899155;29;20028;-48
2022/03/11 21:15:40;;;;;;;10.85;6.72;;;8.90;52.50;;;;;;4899054;29;20382;-45
2022/03/11 21:18:06;;;;;;;9.63;6.25;;;8.80;52.70;;;;;;4899388;29;20097;-47
2022/03/11 21:20:32;;;;;;;12.05;6.45;;;8.80;52.80;;;;;;4899593;29;20088;-48
2022/03/11 21:23:00;;;;;;;9.38;6.70;;;8.70;52.90;;;;;;4897792;29;20040;-46
2022/03/11 21:25:26;;;;;;;9.80;7.53;;;8.70;53.10;;;;;;4899459;29;20036;-46
2022/03/11 21:27:52;;;;;;;11.60;6.63;;;8.70;53.10;;;;;;4899304;29;20115;-46
2022/03/11 21:30:20;;;;;;;13.85;6.28;;;8.70;53.10;;;;;;4899572;29;20111;-46
2022/03/11 21:32:47;;;;;;;10.70;6.32;;;8.70;53.90;;;;;;4898935;29;20021;-46
2022/03/11 21:35:13;;;;;;;17.98;6.72;;;8.70;53.30;;;;;;4899601;29;20040;-50
2022/03/11 21:37:39;;;;;;;11.57;6.13;;;8.70;53.90;;;;;;4899108;29;20040;-48
2022/03/11 21:40:09;;;;;;;15.55;7.03;;;8.70;53.40;;;;;;4898969;29;20028;-50
2022/03/11 21:42:39;;;;;;;9.82;7.22;;;8.70;53.40;;;;;;4898291;29;20033;-46
2022/03/11 21:45:06;;;;;;;9.80;6.43;;;8.60;53.60;;;;;;4898990;29;20024;-45
2022/03/11 21:47:32;;;;;;;10.75;7.40;;;8.70;53.80;;;;;;4899066;29;20021;-46
2022/03/11 21:49:58;;;;;;;12.13;6.55;;;8.60;53.90;;;;;;4898679;29;20040;-47
2022/03/11 21:52:24;;;;;;;8.02;6.75;;;8.50;54.10;;;;;;4898583;29;20108;-46
2022/03/11 21:54:49;;;;;;;10.23;6.88;;;8.50;54.40;;;;;;4898062;29;20484;-51
2022/03/11 21:57:15;;;;;;;10.52;7.50;;;8.50;54.90;;;;;;4898757;29;20025;-46
2022/03/11 21:59:41;;;;;;;11.32;7.20;;;8.30;55.10;;;;;;4898500;29;20076;-47
2022/03/11 22:02:10;;;;;;;13.20;7.20;;;8.20;55.30;;;;;;4898112;29;20100;-48
2022/03/11 22:04:37;;;;;;;10.90;6.47;;;8.20;55.60;;;;;;4898114;29;20100;-49
2022/03/11 22:07:05;;;;;;;14.73;7.03;;;8.10;55.60;;;;;;4898588;29;20032;-49
2022/03/11 22:09:32;;;;;;;9.43;7.00;;;8.20;55.90;;;;;;4898347;29;20496;-47
2022/03/11 22:11:58;;;;;;;11.52;6.47;;;8.10;55.90;;;;;;4897663;29;20092;-48
2022/03/11 22:14:23;;;;;;;14.40;7.70;;;8.20;56.00;;;;;;4898544;29;20408;-46
2022/03/11 22:16:48;;;;;;;9.68;6.90;;;8.20;56.20;;;;;;4898124;29;20028;-46
2022/03/11 22:19:14;;;;;;;17.88;6.80;;;8.10;56.20;;;;;;4898198;29;20149;-51
2022/03/11 22:21:42;;;;;;;13.82;7.93;;;8.00;56.50;;;;;;4898005;29;20087;-48
2022/03/11 22:24:10;;;;;;;15.82;8.27;;;8.10;56.70;;;;;;4898441;29;20051;-48
2022/03/11 22:26:37;;;;;;;12.70;7.38;;;8.00;56.80;;;;;;4896892;29;20059;-47
2022/03/11 22:29:04;;;;;;;10.05;7.13;;;7.90;56.90;;;;;;4898388;29;20032;-51
2022/03/11 22:31:29;;;;;;;18.10;7.22;;;7.90;57.00;;;;;;4898056;29;20029;-46
2022/03/11 22:33:55;;;;;;;10.82;7.50;;;7.90;57.10;;;;;;4898379;29;20040;-47
2022/03/11 22:36:25;;;;;;;13.90;7.93;;;7.90;57.10;;;;;;4896989;29;20035;-52
2022/03/11 22:38:51;;;;;;;14.82;7.07;;;7.80;57.10;;;;;;4897905;29;20084;-48
2022/03/11 22:41:18;;;;;;;16.90;8.02;;;7.80;57.30;;;;;;4897476;29;20334;-48
2022/03/11 22:43:47;;;;;;;12.30;7.13;;;7.70;57.20;;;;;;4898311;29;20029;-48
2022/03/11 22:46:13;;;;;;;10.07;6.47;;;7.70;57.40;;;;;;4898442;29;20032;-45
2022/03/11 22:48:40;;;;;;;13.75;7.80;;;7.70;57.60;;;;;;4897859;29;20048;-49
2022/03/11 22:51:07;;;;;;;11.95;8.13;;;7.70;57.60;;;;;;4897987;29;20073;-45
2022/03/11 22:53:36;;;;;;;15.50;7.30;;;7.60;58.10;;;;;;4896574;29;20025;-53
2022/03/11 22:56:02;;;;;;;9.27;6.35;;;7.50;58.00;;;;;;4898463;29;20025;-50
2022/03/11 22:58:29;;;;;;;11.20;7.18;;;7.50;58.20;;;;;;4897853;29;20104;-48
2022/03/11 23:00:55;;;;;;;9.77;6.88;;;7.50;58.10;;;;;;4898197;29;20021;-47
2022/03/11 23:03:26;;;;;;;14.10;7.25;;;7.40;58.20;;;;;;4897523;29;20032;-48
2022/03/11 23:11:38;;;;;;;12.32;7.03;;;7.20;58.60;;;;;;4898431;29;20522;-48
2022/03/11 23:14:03;;;;;;;9.73;7.05;;;7.20;58.70;;;;;;4896809;29;20115;-47
2022/03/11 23:16:30;;;;;;;14.13;7.78;;;7.20;58.80;;;;;;4897429;29;20067;-48
2022/03/11 23:18:56;;;;;;;11.95;8.55;;;7.10;58.90;;;;;;4900108;29;20067;-46
2022/03/11 23:21:23;;;;;;;9.88;7.15;;;7.10;58.70;;;;;;4900087;29;20032;-48
2022/03/11 23:23:49;;;;;;;12.18;7.97;;;7.10;59.00;;;;;;4897023;29;20033;-50
2022/03/11 23:26:16;;;;;;;9.85;6.78;;;7.10;58.90;;;;;;4896927;29;20067;-46
2022/03/11 23:28:42;;;;;;;12.43;7.60;;;7.00;59.10;;;;;;4897007;29;20028;-47
2022/03/11 23:31:08;;;;;;;8.32;6.30;;;6.90;59.10;;;;;;4896978;29;20040;-50
2022/03/11 23:33:34;;;;;;;16.63;7.65;;;6.90;59.30;;;;;;4896764;29;20073;-46
2022/03/11 23:36:04;;;;;;;13.38;7.07;;;7.00;59.30;;;;;;4897056;29;20024;-46
2022/03/11 23:38:29;;;;;;;8.80;7.18;;;6.90;59.20;;;;;;4896742;29;20024;-49
2022/03/11 23:40:57;;;;;;;11.57;7.00;;;6.80;59.20;;;;;;4896758;29;20389;-48
2022/03/11 23:43:24;;;;;;;18.50;8.35;;;6.80;59.20;;;;;;4896564;29;20021;-48
2022/03/11 23:45:52;;;;;;;10.80;7.88;;;6.90;59.00;;;;;;4897004;29;20060;-48
2022/03/11 23:48:18;;;;;;;9.88;7.68;;;6.80;59.20;;;;;;4896669;29;20063;-47
2022/03/11 23:50:43;;;;;;;13.82;7.32;;;6.90;59.00;;;;;;4896996;29;20048;-50
2022/03/11 23:53:09;;;;;;;12.18;8.15;;;6.90;59.00;;;;;;4896448;29;20029;-46
2022/03/11 23:55:35;;;;;;;10.63;6.57;;;6.80;58.90;;;;;;4896832;29;20531;-50
2022/03/11 23:58:01;;;;;;;11.05;6.88;;;6.80;59.00;;;;;;4896955;29;20033;-49
